Terminal Aerodrome Forecast
Issued by NWS Corpus Christi, TX

Home | Current Version | Previous Version | Text Only | Print | Product List | Glossary On
Versions: 1 2 3 4 5 6 7 8 9 10 11 12 13 14 15
114
FTUS44 KCRP 261736
TAFVCT
TAF
KVCT 261736Z 2618/2718 12010KT P6SM VCTS SCT025CB OVC120
      TEMPO 2618/2621 2SM TSRA OVC020CB
     FM262100 10012KT P6SM VCTS BKN030CB BKN120
      TEMPO 2621/2624 5SM TSRA BR OVC030CB
     FM270000 09008KT P6SM SCT030 BKN100
     FM270800 08005KT 5SM BR BKN020 OVC100 PROB30 2708/2712 3SM
      -SHRA OVC015
     FM271400 07008KT P6SM VCSH BKN035 PROB30 2715/2718 3SM SHRA
      OVC030=

USA.gov is the U.S. government's official web portal to all federal, state and local government web resources and services.